This is the latest recevied weather packets stored in our database for station/object N4MGC. If no packets are shown the sender has not sent any weather packets the latest 10 day(s).
| Time | Temp. | Humidity | Pressure | Rain* | Wind** | Luminosity | Snow |
|---|---|---|---|---|---|---|---|
| 1777230738 | 28.33° C | 61% | 1012.1 hPa | 0 mm | - | 667 W/m² | - |
| 1777230433 | 28.33° C | 60% | 1012 hPa | 0 mm | - | 195 W/m² | - |
| 1777230130 | 28.89° C | 58% | 1012.2 hPa | 0 mm | - | 722 W/m² | - |
| 1777229827 | 27.78° C | 63% | 1012.2 hPa | 0 mm | - | 661 W/m² | - |
| 1777229524 | 28.33° C | 63% | 1012.5 hPa | 0 mm | - | 674 W/m² | - |
| 1777229220 | 28.89° C | 62% | 1012.5 hPa | 0 mm | - | 528 W/m² | - |
| 1777228917 | 27.78° C | 62% | 1012.2 hPa | 0 mm | - | 683 W/m² | - |
| 1777228613 | 26.67° C | 66% | 1012.7 hPa | 0 mm | - | 711 W/m² | - |
| 1777228309 | 26.67° C | 66% | 1012.7 hPa | 0 mm | - | 136 W/m² | - |
| 1777228005 | 27.78° C | 66% | 1012.6 hPa | 0 mm | - | 152 W/m² | - |
| 1777227699 | 27.22° C | 66% | 1012.6 hPa | 0 mm | - | 763 W/m² | - |
| 1777227395 | 27.22° C | 68% | 1012.7 hPa | 0 mm | - | 774 W/m² | - |
| 1777227092 | 28.33° C | 63% | 1012.7 hPa | 0 mm | - | 202 W/m² | - |
| 1777226788 | 27.78° C | 62% | 1012.5 hPa | 0 mm | - | 287 W/m² | - |
| 1777226481 | 27.78° C | 67% | 1012.8 hPa | 0 mm | - | 603 W/m² | - |
| 1777226177 | 27.22° C | 67% | 1012.8 hPa | 0 mm | - | 792 W/m² | - |
| 1777225874 | 27.22° C | 68% | 1012.8 hPa | 0 mm | - | 595 W/m² | - |
| 1777225570 | 27.78° C | 63% | 1013 hPa | 0 mm | - | 663 W/m² | - |
| 1777225267 | 27.78° C | 65% | 1013.1 hPa | 0 mm | - | 573 W/m² | - |
| 1777224964 | 27.22° C | 66% | 1013.1 hPa | 0 mm | - | 507 W/m² | - |
| 1777224661 | 27.22° C | 64% | 1013.1 hPa | 0 mm | - | 436 W/m² | - |
| 1777224355 | 27.78° C | 63% | 1013.3 hPa | 0 mm | - | 664 W/m² | - |
| 1777224052 | 27.78° C | 65% | 1013.3 hPa | 0 mm | - | 720 W/m² | - |
| 1777223749 | 27.22° C | 70% | 1013.2 hPa | 0 mm | - | 471 W/m² | - |
| 1777223444 | 26.67° C | 67% | 1013.4 hPa | 0 mm | - | 741 W/m² | - |
* Rain latest hour (hover to see other rain measurements)
** Current wind speed in m/s (hover to see current wind gust speed)